Time;durP1;ratioP1;P1;durP2;ratioP2;P2;SDS_P1;SDS_P2;PMS_P1;PMS_P2;Temp;Humidity;BMP_temperature;BMP_pressure;BME280_temperature;BME280_humidity;BME280_pressure;Samples;Min_cycle;Max_cycle;Signal;HPM_P1;HPM_P2
2022/09/19 00:02:19;;;;;;;1.80;1.07;;;;;;;12.85;61.60;99475.56;5053451;28;20216;-65
2022/09/19 00:04:45;;;;;;;3.33;1.07;;;;;;;12.85;61.88;99469.41;5052703;28;20644;-65
2022/09/19 00:07:12;;;;;;;1.60;1.07;;;;;;;12.79;62.33;99472.91;5053413;28;20220;-65
2022/09/19 00:09:39;;;;;;;1.17;1.13;;;;;;;12.95;62.05;99481.25;5052071;28;20282;-65
2022/09/19 00:12:06;;;;;;;1.07;1.07;;;;;;;13.13;61.13;99469.94;5061738;28;20671;-64
2022/09/19 00:14:35;;;;;;;1.23;0.97;;;;;;;13.10;59.98;99476.50;5072506;28;20261;-65
2022/09/19 00:17:06;;;;;;;0.83;0.83;;;;;;;13.13;58.53;99481.41;5072278;28;20192;-65
2022/09/19 00:19:32;;;;;;;1.47;0.90;;;;;;;13.12;58.53;99482.47;5069737;28;20233;-65
2022/09/19 00:22:01;;;;;;;2.50;1.20;;;;;;;13.26;58.34;99485.84;5052845;28;20200;-64
2022/09/19 00:24:46;;;;;;;0.70;0.70;;;;;;;13.26;57.28;99485.84;5052056;28;20224;-65
2022/09/19 00:27:15;;;;;;;0.80;0.80;;;;;;;13.02;58.37;99491.94;5052689;28;20274;-64
2022/09/19 00:29:43;;;;;;;1.10;1.10;;;;;;;12.99;58.56;99487.81;5052515;28;20387;-64
2022/09/19 00:32:12;;;;;;;0.80;0.80;;;;;;;13.08;58.58;99483.09;5052340;28;20193;-65
2022/09/19 00:34:40;;;;;;;1.10;1.10;;;;;;;13.23;58.82;99484.44;5052276;28;20205;-65
2022/09/19 00:37:07;;;;;;;1.00;1.00;;;;;;;13.17;58.90;99482.63;5053151;28;20192;-65
2022/09/19 00:39:34;;;;;;;1.17;1.17;;;;;;;13.30;58.99;99479.06;5052290;28;20258;-65
2022/09/19 00:42:00;;;;;;;0.83;0.83;;;;;;;13.29;58.68;99483.59;5052244;28;20201;-65
2022/09/19 00:44:52;;;;;;;1.63;1.00;;;;;;;13.37;58.67;99485.19;5051694;28;20219;-65
2022/09/19 00:47:25;;;;;;;1.43;0.80;;;;;;;13.44;59.55;99473.44;5052456;28;20209;-65
2022/09/19 00:49:55;;;;;;;1.10;1.10;;;;;;;13.64;58.22;99481.34;5051783;28;20185;-64
2022/09/19 00:52:28;;;;;;;0.90;0.90;;;;;;;13.74;57.59;99479.00;5051917;28;20271;-65
2022/09/19 00:54:56;;;;;;;1.43;0.90;;;;;;;13.46;58.33;99479.41;5052081;28;20276;-64
2022/09/19 00:57:33;;;;;;;3.60;1.30;;;;;;;13.37;59.06;99475.34;5052038;28;20201;-64
2022/09/19 01:00:04;;;;;;;0.90;0.90;;;;;;;13.58;58.63;99479.50;5052051;28;20188;-64
2022/09/19 01:02:32;;;;;;;1.90;1.23;;;;;;;13.85;57.84;99472.97;5052069;28;20235;-64
2022/09/19 01:05:01;;;;;;;1.60;1.10;;;;;;;14.08;58.23;99474.00;5051502;28;20793;-65
2022/09/19 01:07:43;;;;;;;1.03;1.03;;;;;;;14.23;57.83;99476.38;5052018;28;20649;-65
2022/09/19 01:10:20;;;;;;;1.00;1.00;;;;;;;14.32;58.08;99475.88;5052007;28;20236;-65
2022/09/19 01:12:54;;;;;;;1.00;1.00;;;;;;;14.34;58.24;99473.78;5066330;28;20689;-65
2022/09/19 01:15:32;;;;;;;1.07;1.07;;;;;;;14.24;59.06;99468.13;5072204;28;20190;-64
2022/09/19 01:18:01;;;;;;;3.77;1.20;;;;;;;14.38;58.49;99471.50;5071609;28;20275;-66
2022/09/19 01:21:37;;;;;;;4.73;1.40;;;;;;;14.56;58.56;99471.50;5062721;28;20196;-64
2022/09/19 01:24:08;;;;;;;1.53;1.20;;;;;;;14.65;58.89;99464.81;5055393;28;20192;-64
2022/09/19 01:27:00;;;;;;;1.00;1.00;;;;;;;14.62;59.01;99466.09;5056083;28;20196;-66
2022/09/19 01:29:33;;;;;;;1.13;1.10;;;;;;;14.61;59.08;99464.47;5055664;28;20203;-64
2022/09/19 01:32:03;;;;;;;1.10;1.10;;;;;;;14.57;59.54;99471.28;5055407;28;20181;-64
2022/09/19 01:34:33;;;;;;;0.97;0.97;;;;;;;14.59;59.78;99465.72;5055688;28;20220;-64
2022/09/19 01:37:07;;;;;;;1.67;1.20;;;;;;;14.65;59.17;99470.16;5055304;28;20196;-64
2022/09/19 01:39:38;;;;;;;1.73;1.30;;;;;;;14.66;59.78;99466.47;5055204;28;20230;-64
2022/09/19 01:42:05;;;;;;;1.37;1.10;;;;;;;14.70;60.29;99468.47;5055764;28;20628;-64
2022/09/19 01:44:33;;;;;;;2.53;1.33;;;;;;;14.70;59.87;99467.66;5055412;28;20231;-64
2022/09/19 01:47:14;;;;;;;3.17;1.13;;;;;;;14.75;59.99;99476.63;5055072;28;20284;-64
2022/09/19 01:49:50;;;;;;;2.77;1.40;;;;;;;14.70;60.14;99468.47;5055017;28;20185;-64
2022/09/19 01:52:30;;;;;;;2.27;1.40;;;;;;;14.75;60.04;99473.94;5055894;28;20188;-64
2022/09/19 01:55:07;;;;;;;1.57;1.30;;;;;;;14.77;59.62;99471.06;5055230;28;20283;-65
2022/09/19 01:57:45;;;;;;;1.53;0.97;;;;;;;14.63;60.92;99473.06;5055434;28;20223;-65
2022/09/19 02:00:15;;;;;;;1.23;1.23;;;;;;;14.58;61.04;99475.59;5054820;28;20185;-65
2022/09/19 02:02:56;;;;;;;1.40;1.30;;;;;;;14.53;61.62;99469.28;5055090;28;20184;-65
2022/09/19 02:05:33;;;;;;;2.60;1.67;;;;;;;14.55;61.78;99465.31;5054999;28;20270;-65
2022/09/19 02:08:03;;;;;;;1.10;1.10;;;;;;;14.61;61.05;99474.31;5055293;28;20216;-65
2022/09/19 02:10:35;;;;;;;2.50;1.30;;;;;;;14.59;60.65;99477.22;5055447;28;20290;-65
2022/09/19 02:13:05;;;;;;;2.57;1.40;;;;;;;14.52;60.52;99481.84;5070499;28;20712;-65
2022/09/19 02:15:36;;;;;;;3.40;1.30;;;;;;;14.50;61.13;99475.09;5074937;28;20247;-66
2022/09/19 02:18:09;;;;;;;1.33;1.10;;;;;;;14.58;60.83;99477.47;5075509;28;20226;-65
2022/09/19 02:20:40;;;;;;;1.33;1.20;;;;;;;14.61;60.44;99485.84;5063203;28;20604;-65
2022/09/19 02:23:14;;;;;;;1.43;1.33;;;;;;;14.62;60.75;99481.31;5054756;28;20617;-65
2022/09/19 02:25:44;;;;;;;1.20;1.10;;;;;;;14.59;59.82;99477.22;5054710;28;20281;-65
2022/09/19 02:28:18;;;;;;;1.37;1.27;;;;;;;14.50;59.04;99483.91;5054770;28;20254;-66
2022/09/19 02:30:46;;;;;;;1.30;1.20;;;;;;;14.38;59.32;99480.31;5054129;28;20185;-66
2022/09/19 02:33:13;;;;;;;1.80;1.23;;;;;;;14.07;59.18;99483.06;5054905;28;20246;-66
2022/09/19 02:35:47;;;;;;;1.70;1.47;;;;;;;13.88;59.80;99465.31;5054454;28;20196;-65
2022/09/19 02:38:23;;;;;;;2.87;1.27;;;;;;;13.88;60.08;99472.53;5054257;28;20717;-65
2022/09/19 02:40:57;;;;;;;1.53;1.37;;;;;;;13.72;59.93;99479.22;5054080;28;20185;-65
2022/09/19 02:43:36;;;;;;;3.70;1.70;;;;;;;13.63;59.95;99479.69;5054456;28;20185;-65
2022/09/19 02:46:09;;;;;;;2.00;1.50;;;;;;;13.71;59.91;99482.91;5054200;28;20246;-66
2022/09/19 02:48:44;;;;;;;5.07;1.50;;;;;;;13.84;59.05;99488.16;5054092;28;20189;-64
2022/09/19 02:51:16;;;;;;;1.87;1.40;;;;;;;13.70;59.00;99489.31;5054440;28;20246;-65
2022/09/19 02:53:47;;;;;;;4.10;1.63;;;;;;;13.70;60.66;99485.81;5054479;28;20189;-65
2022/09/19 02:56:17;;;;;;;1.60;1.50;;;;;;;13.84;60.39;99492.69;5053771;28;20247;-65
2022/09/19 02:58:49;;;;;;;2.27;1.30;;;;;;;13.85;59.50;99495.13;5054636;28;20246;-65
2022/09/19 03:01:23;;;;;;;4.53;1.70;;;;;;;13.69;59.38;99495.66;5054244;28;20247;-64
2022/09/19 03:06:43;;;;;;;4.30;1.60;;;;;;;13.62;58.74;99497.56;5053765;28;20184;-65
2022/09/19 03:09:14;;;;;;;3.97;2.80;;;;;;;13.68;59.12;99498.56;5053974;28;20238;-65
2022/09/19 03:11:46;;;;;;;2.47;1.80;;;;;;;13.83;58.81;99499.88;5061208;28;20727;-65
2022/09/19 03:14:13;;;;;;;2.97;1.67;;;;;;;13.84;58.51;99482.03;5094078;28;20184;-65
2022/09/19 03:16:46;;;;;;;2.60;1.77;;;;;;;13.97;57.61;99498.72;5093535;28;20187;-64
2022/09/19 03:19:14;;;;;;;3.07;1.80;;;;;;;14.03;58.08;99502.38;5093967;28;20191;-65
2022/09/19 03:21:41;;;;;;;2.03;1.77;;;;;;;13.98;58.83;99495.06;5073187;28;20238;-65
2022/09/19 03:24:10;;;;;;;3.47;2.07;;;;;;;13.90;58.99;99489.97;5074160;28;20196;-63
2022/09/19 03:26:38;;;;;;;2.40;1.50;;;;;;;13.99;58.30;99490.50;5073368;28;20223;-63
2022/09/19 03:29:08;;;;;;;2.47;1.50;;;;;;;14.04;57.07;99499.50;5074046;28;20196;-64
2022/09/19 03:31:35;;;;;;;2.73;1.50;;;;;;;14.01;57.57;99494.59;5073400;28;20188;-63
2022/09/19 03:34:04;;;;;;;1.43;1.33;;;;;;;13.96;57.61;99491.75;5073295;28;20195;-63
2022/09/19 03:36:33;;;;;;;1.57;1.47;;;;;;;13.89;58.07;99500.88;5072930;28;20196;-64
2022/09/19 03:39:02;;;;;;;4.57;1.83;;;;;;;13.89;57.44;99485.66;5072929;28;20196;-64
2022/09/19 03:41:31;;;;;;;2.50;1.57;;;;;;;14.15;67.56;99476.59;5073131;28;20286;-64
2022/09/19 03:44:01;;;;;;;3.50;1.63;;;;;;;14.79;61.59;99488.50;5072568;28;20278;-62
2022/09/19 03:46:30;;;;;;;3.30;1.80;;;;;;;15.23;59.06;99493.53;5072353;28;20696;-65
2022/09/19 03:48:57;;;;;;;3.30;1.77;;;;;;;15.51;53.92;99490.31;5072476;28;20234;-63
2022/09/19 03:51:25;;;;;;;4.20;1.50;;;;;;;15.54;52.85;99497.88;5073175;28;20192;-63
2022/09/19 03:53:52;;;;;;;2.97;2.03;;;;;;;15.40;53.52;99494.56;5073730;28;20192;-64
2022/09/19 03:56:19;;;;;;;2.97;1.57;;;;;;;15.30;53.20;99506.81;5072491;28;20675;-64
2022/09/19 03:58:46;;;;;;;7.80;2.30;;;;;;;15.07;54.71;99496.81;5072487;28;20207;-64
2022/09/19 04:01:15;;;;;;;2.83;1.97;;;;;;;14.93;54.83;99483.84;5071848;28;20659;-65
2022/09/19 04:03:43;;;;;;;5.43;1.77;;;;;;;14.94;55.28;99502.34;5072507;28;20191;-64
2022/09/19 04:06:10;;;;;;;4.23;2.10;;;;;;;14.99;55.23;99505.16;5071840;28;20219;-65
2022/09/19 04:08:39;;;;;;;3.73;2.03;;;;;;;15.00;54.84;99506.78;5071131;28;20285;-64
2022/09/19 04:11:06;;;;;;;10.30;2.20;;;;;;;14.95;54.45;99501.28;5069354;28;20184;-66
2022/09/19 04:13:33;;;;;;;2.87;2.10;;;;;;;14.88;54.74;99497.91;5071906;28;20682;-64
2022/09/19 04:16:01;;;;;;;2.57;2.20;;;;;;;14.82;55.05;99503.28;5072529;28;20211;-64
2022/09/19 04:18:28;;;;;;;7.60;2.30;;;;;;;14.67;57.00;99494.84;5072478;28;20220;-65
2022/09/19 04:20:56;;;;;;;6.27;2.50;;;;;;;14.62;56.70;99498.16;5058793;28;20201;-65
2022/09/19 04:23:25;;;;;;;3.00;2.70;;;;;;;14.62;57.04;99497.38;5052037;28;20195;-63
2022/09/19 04:25:53;;;;;;;8.80;2.63;;;;;;;14.66;56.24;99504.69;5052061;28;20225;-64
2022/09/19 04:28:21;;;;;;;2.60;2.40;;;;;;;14.60;56.62;99500.25;5051879;28;20676;-64
2022/09/19 04:30:47;;;;;;;10.90;2.60;;;;;;;14.58;57.14;99496.97;5050428;28;20680;-63
2022/09/19 04:33:17;;;;;;;8.80;2.47;;;;;;;14.87;58.50;99496.25;5050620;28;20196;-63
2022/09/19 04:35:45;;;;;;;8.80;2.10;;;;;;;15.46;55.04;99499.03;5051247;28;20211;-64
2022/09/19 04:38:17;;;;;;;5.90;2.43;;;;;;;15.98;52.33;99500.91;5050907;28;20193;-65
2022/09/19 04:40:45;;;;;;;13.90;3.20;;;;;;;16.45;51.12;99514.41;5050727;28;20637;-64
2022/09/19 04:43:16;;;;;;;6.17;2.50;;;;;;;17.05;49.31;99513.88;5050365;28;20288;-65
2022/09/19 04:45:48;;;;;;;5.37;2.07;;;;;;;17.79;55.53;99499.47;5049920;28;20616;-66
2022/09/19 04:48:15;;;;;;;5.70;1.60;;;;;;;19.24;52.26;99494.44;5051691;28;20271;-66
2022/09/19 04:50:45;;;;;;;6.40;1.67;;;;;;;20.74;47.30;99504.97;5051537;28;20201;-66
2022/09/19 04:53:16;;;;;;;5.70;1.63;;;;;;;21.99;43.06;99508.97;5051668;28;20283;-67
2022/09/19 04:55:43;;;;;;;11.90;1.70;;;;;;;23.00;39.19;99524.06;5050553;28;20224;-70
2022/09/19 04:58:10;;;;;;;4.70;1.77;;;;;;;23.17;34.41;99519.13;5049878;28;20193;-68
2022/09/19 05:00:39;;;;;;;2.27;1.60;;;;;;;23.59;34.50;99518.66;5048966;28;20676;-70
2022/09/19 05:03:08;;;;;;;2.27;2.00;;;;;;;23.83;33.24;99515.00;5051337;28;20228;-67
2022/09/19 05:05:37;;;;;;;8.50;2.03;;;;;;;23.69;31.86;99513.19;5050839;28;20224;-68
2022/09/19 05:08:05;;;;;;;3.63;2.77;;;;;;;23.83;33.41;99508.75;5050095;28;20279;-68
2022/09/19 05:10:33;;;;;;;2.37;1.30;;;;;;;23.58;32.86;99512.44;5051993;28;20291;-67
2022/09/19 05:13:00;;;;;;;3.50;1.63;;;;;;;23.52;33.57;99507.34;5065189;28;20201;-69
2022/09/19 05:15:27;;;;;;;8.03;2.10;;;;;;;23.72;31.99;99512.63;5070338;28;20196;-70
2022/09/19 05:17:55;;;;;;;10.00;2.33;;;;;;;24.24;33.08;99515.53;5072164;28;20196;-71
2022/09/19 05:20:25;;;;;;;10.73;2.10;;;;;;;24.73;31.79;99517.03;5071769;28;20201;-70
2022/09/19 05:22:58;;;;;;;10.67;1.80;;;;;;;25.16;31.28;99515.19;5071356;28;20189;-69
2022/09/19 05:25:26;;;;;;;8.48;1.90;;;;;;;25.51;31.06;99508.53;5071238;28;20445;-66
2022/09/19 05:27:54;;;;;;;7.60;2.00;;;;;;;26.39;29.01;99503.91;5071902;28;20203;-64
2022/09/19 05:30:24;;;;;;;11.57;2.40;;;;;;;26.59;28.43;99503.59;5071729;28;20203;-64
2022/09/19 05:32:51;;;;;;;6.33;2.10;;;;;;;27.01;27.76;99506.88;5071812;28;20196;-62
2022/09/19 05:35:20;;;;;;;7.80;2.30;;;;;;;26.95;28.23;99505.34;5071310;28;20618;-62
2022/09/19 05:37:47;;;;;;;10.50;2.27;;;;;;;27.10;27.59;99515.13;5071965;28;20647;-62
2022/09/19 05:40:14;;;;;;;11.97;2.30;;;;;;;27.41;27.22;99508.00;5071310;28;20249;-62
2022/09/19 05:42:41;;;;;;;6.63;1.67;;;;;;;27.47;25.43;99512.22;5071215;28;20241;-62
2022/09/19 05:45:09;;;;;;;3.70;1.73;;;;;;;26.61;26.53;99506.81;5071294;28;20283;-62
2022/09/19 05:47:38;;;;;;;10.43;1.40;;;;;;;26.44;27.75;99512.81;5072210;28;20196;-61
2022/09/19 05:50:07;;;;;;;4.63;1.23;;;;;;;26.66;27.34;99515.72;5071306;28;20662;-64
2022/09/19 05:55:20;;;;;;;2.27;1.60;;;;;;;27.02;26.84;99524.03;5071448;28;20191;-63
2022/09/19 05:57:51;;;;;;;2.73;1.30;;;;;;;27.19;26.72;99526.97;5071104;28;20200;-64
2022/09/19 06:00:18;;;;;;;5.53;1.70;;;;;;;27.54;26.33;99520.81;5071825;28;20279;-64
2022/09/19 06:02:45;;;;;;;1.53;1.20;;;;;;;27.51;25.74;99526.88;5071119;28;20736;-63
2022/09/19 06:05:12;;;;;;;9.00;1.73;;;;;;;27.82;25.43;99533.31;5070607;28;20499;-63
2022/09/19 06:07:40;;;;;;;5.23;1.97;;;;;;;27.82;24.46;99527.84;5075090;28;20442;-64
2022/09/19 06:10:08;;;;;;;6.07;1.90;;;;;;;26.74;25.51;99527.84;5075100;28;20232;-65
2022/09/19 06:12:35;;;;;;;5.50;2.07;;;;;;;26.70;26.69;99522.19;5074818;28;20283;-66
2022/09/19 06:15:01;;;;;;;3.43;2.10;;;;;;;27.13;27.50;99530.91;5069703;28;20196;-65
2022/09/19 06:17:28;;;;;;;4.43;2.00;;;;;;;27.36;25.56;99530.72;5054885;28;20279;-65
2022/09/19 06:19:55;;;;;;;6.30;2.13;;;;;;;26.92;27.63;99526.97;5060067;28;20269;-66
2022/09/19 06:22:21;;;;;;;3.80;2.27;;;;;;;26.90;26.03;99531.91;5074833;28;20243;-65
2022/09/19 06:24:50;;;;;;;2.17;1.90;;;;;;;26.78;27.22;99528.88;5074711;28;20261;-66
2022/09/19 06:27:16;;;;;;;4.50;2.20;;;;;;;26.81;27.80;99542.69;5074642;28;20678;-67
2022/09/19 06:29:43;;;;;;;1.70;1.60;;;;;;;26.63;26.58;99537.31;5074581;28;20192;-67
2022/09/19 06:32:11;;;;;;;4.67;1.73;;;;;;;26.46;28.12;99537.03;5074246;28;20192;-67
2022/09/19 06:34:39;;;;;;;3.10;1.80;;;;;;;25.84;27.43;99540.16;5074509;28;20252;-67
2022/09/19 06:37:06;;;;;;;1.93;1.60;;;;;;;25.80;28.50;99537.22;5073845;28;20687;-66
2022/09/19 06:39:33;;;;;;;3.67;2.00;;;;;;;25.67;28.75;99545.28;5074487;28;20191;-67
2022/09/19 06:42:01;;;;;;;5.80;2.00;;;;;;;25.59;28.64;99538.59;5074110;28;20671;-67
2022/09/19 06:44:27;;;;;;;4.17;1.33;;;;;;;25.46;27.95;99538.50;5073923;28;20627;-67
2022/09/19 06:46:54;;;;;;;4.07;1.80;;;;;;;25.28;29.01;99537.38;5073908;28;20701;-69
2022/09/19 06:49:21;;;;;;;1.63;1.53;;;;;;;25.13;28.82;99544.84;5074194;28;20198;-67
2022/09/19 06:51:47;;;;;;;1.67;1.43;;;;;;;25.55;30.03;99539.50;5073856;28;20667;-65
2022/09/19 06:54:14;;;;;;;3.57;1.43;;;;;;;24.98;30.11;99538.50;5074328;28;20254;-66
2022/09/19 06:56:41;;;;;;;6.40;1.90;;;;;;;24.77;30.25;99539.81;5073524;28;20666;-66
2022/09/19 06:59:09;;;;;;;2.97;1.80;;;;;;;25.42;29.83;99540.19;5073680;28;20288;-65
2022/09/19 07:01:37;;;;;;;9.70;1.87;;;;;;;25.75;27.42;99537.28;5073565;28;20237;-67
2022/09/19 07:04:04;;;;;;;2.80;1.63;;;;;;;25.66;27.71;99543.66;5073814;28;20195;-67
2022/09/19 07:06:34;;;;;;;3.07;1.77;;;;;;;25.98;27.65;99543.78;5074280;28;20224;-66
2022/09/19 07:09:02;;;;;;;2.50;2.00;;;;;;;26.05;27.70;99534.13;5073533;28;20596;-67
2022/09/19 07:11:29;;;;;;;4.47;2.93;;;;;;;25.82;28.46;99539.63;5073584;28;20283;-68
2022/09/19 07:13:56;;;;;;;9.03;2.43;;;;;;;25.48;29.31;99536.31;5073532;28;20200;-68
2022/09/19 07:16:24;;;;;;;2.30;2.10;;;;;;;25.65;28.45;99531.19;5073798;28;20203;-67
2022/09/19 07:18:51;;;;;;;2.13;1.93;;;;;;;25.72;28.12;99516.09;5072396;28;20207;-67
2022/09/19 07:21:17;;;;;;;7.77;2.10;;;;;;;26.01;28.45;99526.88;5056966;28;20196;-67
2022/09/19 07:23:47;;;;;;;3.87;1.63;;;;;;;26.45;28.13;99519.09;5053675;28;20628;-68
2022/09/19 07:26:13;;;;;;;1.50;1.40;;;;;;;26.92;27.64;99519.59;5053428;28;20643;-66
2022/09/19 07:28:40;;;;;;;1.87;1.30;;;;;;;26.76;27.47;99520.16;5053196;28;20192;-67
2022/09/19 07:31:07;;;;;;;3.23;1.83;;;;;;;26.81;27.73;99517.34;5053399;28;20200;-68
2022/09/19 07:33:35;;;;;;;2.70;1.63;;;;;;;27.17;26.84;99526.47;5053143;28;20193;-66
2022/09/19 07:36:02;;;;;;;1.70;1.30;;;;;;;27.30;26.22;99520.22;5053018;28;20684;-67
2022/09/19 07:38:29;;;;;;;4.97;1.10;;;;;;;27.47;25.28;99520.41;5053615;28;20254;-68
2022/09/19 07:40:55;;;;;;;5.37;1.13;;;;;;;27.73;26.13;99516.03;5053132;28;20269;-67
2022/09/19 07:43:22;;;;;;;3.13;1.43;;;;;;;27.78;25.87;99515.91;5053274;28;20200;-68
2022/09/19 07:45:51;;;;;;;3.40;1.10;;;;;;;27.80;25.28;99513.66;5053267;28;20225;-68
2022/09/19 07:48:18;;;;;;;2.70;1.30;;;;;;;27.96;25.64;99506.75;5052890;28;20196;-67
2022/09/19 07:50:47;;;;;;;7.60;1.30;;;;;;;27.99;25.07;99512.44;5053173;28;20196;-68
2022/09/19 07:53:16;;;;;;;4.33;1.27;;;;;;;27.99;25.72;99501.50;5053117;28;20189;-67
2022/09/19 07:55:44;;;;;;;5.33;1.60;;;;;;;28.26;25.75;99508.78;5052700;28;20664;-67
2022/09/19 07:58:12;;;;;;;3.70;1.00;;;;;;;28.32;24.65;99504.78;5052743;28;20254;-67
2022/09/19 08:00:40;;;;;;;2.87;1.00;;;;;;;27.82;24.26;99509.56;5053064;28;20290;-68
2022/09/19 08:03:10;;;;;;;1.43;1.30;;;;;;;28.00;23.83;99507.75;5052875;28;20197;-68
2022/09/19 08:05:39;;;;;;;1.87;1.00;;;;;;;27.95;24.33;99510.63;5052995;28;20250;-68
2022/09/19 08:08:10;;;;;;;4.50;1.90;;;;;;;28.13;24.67;99501.44;5052515;28;20668;-68
2022/09/19 08:10:38;;;;;;;3.07;1.40;;;;;;;27.71;25.38;99493.66;5052476;28;20223;-68
2022/09/19 08:13:06;;;;;;;3.00;1.30;;;;;;;27.91;24.95;99482.31;5067250;28;20207;-68
2022/09/19 08:15:34;;;;;;;2.40;1.90;;;;;;;28.08;24.65;99490.63;5092562;28;20282;-68
2022/09/19 08:18:03;;;;;;;2.10;1.30;;;;;;;28.24;24.50;99480.94;5092922;28;20641;-68
2022/09/19 08:20:31;;;;;;;3.13;1.60;;;;;;;28.39;23.52;99484.13;5082444;28;20192;-68
2022/09/19 08:22:59;;;;;;;3.27;1.47;;;;;;;28.03;24.14;99485.28;5072307;28;20690;-68
2022/09/19 08:25:29;;;;;;;1.67;1.20;;;;;;;27.64;27.74;99466.78;5072370;28;20188;-67
2022/09/19 08:27:56;;;;;;;3.80;2.13;;;;;;;27.64;25.09;99471.47;5072559;28;20573;-68
2022/09/19 08:30:23;;;;;;;2.30;1.70;;;;;;;27.19;25.82;99465.03;5071845;28;20230;-68
2022/09/19 08:32:51;;;;;;;3.57;2.10;;;;;;;26.55;26.09;99461.66;5072398;28;20196;-69
2022/09/19 08:35:19;;;;;;;4.60;1.90;;;;;;;25.62;26.97;99463.72;5072048;28;20226;-68
2022/09/19 08:37:46;;;;;;;8.83;2.47;;;;;;;25.56;27.35;99456.75;5072307;28;20231;-66
2022/09/19 08:40:18;;;;;;;4.37;2.40;;;;;;;25.39;27.44;99462.69;5071885;28;20253;-67
2022/09/19 08:43:03;;;;;;;3.07;2.10;;;;;;;25.06;28.66;99452.75;5073131;28;20272;-69
2022/09/19 08:45:46;;;;;;;6.10;2.40;;;;;;;25.23;27.55;99457.72;5072234;28;20188;-67
2022/09/19 08:48:21;;;;;;;8.03;2.00;;;;;;;24.92;28.02;99454.59;5072219;28;20225;-65
2022/09/19 08:50:54;;;;;;;2.17;1.73;;;;;;;23.64;30.18;99438.09;5072392;28;20195;-68
2022/09/19 08:53:28;;;;;;;12.63;2.47;;;;;;;24.05;29.98;99434.00;5071985;28;20651;-68
2022/09/19 08:56:00;;;;;;;5.23;1.57;;;;;;;24.41;28.36;99434.47;5072334;28;20621;-69
2022/09/19 08:58:32;;;;;;;3.63;1.90;;;;;;;24.54;28.30;99440.03;5071840;28;20190;-68
2022/09/19 09:01:01;;;;;;;3.43;1.57;;;;;;;24.63;28.44;99432.88;5072774;28;20187;-66
2022/09/19 09:03:38;;;;;;;8.97;1.57;;;;;;;24.62;27.02;99420.41;5072219;28;20196;-67
2022/09/19 09:06:21;;;;;;;1.80;1.40;;;;;;;24.72;27.12;99431.19;5072464;28;20252;-68
2022/09/19 09:08:56;;;;;;;3.93;1.97;;;;;;;24.72;27.47;99425.75;5071706;28;20263;-69
2022/09/19 09:11:32;;;;;;;3.40;1.70;;;;;;;24.65;27.04;99424.47;5073573;28;20202;-69
2022/09/19 09:14:08;;;;;;;2.10;1.80;;;;;;;24.57;28.05;99422.34;5073115;28;20263;-69
2022/09/19 09:16:48;;;;;;;3.10;2.10;;;;;;;24.42;27.91;99366.28;5071495;28;20654;-69
2022/09/19 09:19:28;;;;;;;2.67;1.60;;;;;;;24.61;27.43;99388.91;5072077;28;20184;-68
2022/09/19 09:22:02;;;;;;;1.73;1.63;;;;;;;24.66;27.54;99410.59;5052166;28;20196;-69
2022/09/19 09:24:34;;;;;;;2.83;1.50;;;;;;;24.87;27.48;99409.25;5055884;28;20191;-68
2022/09/19 09:27:04;;;;;;;3.87;1.50;;;;;;;24.96;26.54;99395.81;5055721;28;20220;-70
2022/09/19 09:29:38;;;;;;;2.87;1.17;;;;;;;24.96;26.19;99398.53;5056855;28;20216;-68
2022/09/19 09:32:14;;;;;;;1.13;0.97;;;;;;;25.19;26.05;99386.00;5052055;28;20699;-69
2022/09/19 09:34:46;;;;;;;1.57;1.50;;;;;;;25.41;25.66;99389.78;5051823;28;20180;-67
2022/09/19 09:37:21;;;;;;;1.20;1.10;;;;;;;25.38;25.35;99384.94;5052141;28;20235;-68
2022/09/19 09:39:59;;;;;;;1.50;1.40;;;;;;;25.63;24.71;99381.03;5051470;28;20271;-68
2022/09/19 09:42:34;;;;;;;1.30;1.20;;;;;;;25.64;24.85;99388.06;5054290;28;20234;-68
2022/09/19 09:45:13;;;;;;;2.27;1.30;;;;;;;25.85;23.94;99378.47;5055452;28;20272;-67
2022/09/19 09:47:48;;;;;;;2.67;1.10;;;;;;;25.48;25.10;99368.44;5053979;28;20691;-69
2022/09/19 09:50:34;;;;;;;2.83;1.20;;;;;;;25.74;25.14;99368.84;5054257;28;20198;-69
2022/09/19 09:53:12;;;;;;;1.07;1.07;;;;;;;25.80;24.55;99370.41;5054450;28;20714;-68
2022/09/19 09:58:47;;;;;;;1.00;0.90;;;;;;;26.40;23.79;99358.41;5050283;28;20195;-68
2022/09/19 10:04:20;;;;;;;1.30;0.83;;;;;;;26.44;23.52;99364.88;5050657;28;20666;-68
2022/09/19 10:06:53;;;;;;;1.33;1.23;;;;;;;26.86;23.66;99357.22;5047790;28;20300;-68
2022/09/19 10:09:24;;;;;;;2.67;0.90;;;;;;;26.93;22.72;99351.34;5046354;28;20283;-74
2022/09/19 10:11:57;;;;;;;3.33;0.97;;;;;;;26.91;21.70;99350.84;5048836;28;20210;-69
2022/09/19 10:14:28;;;;;;;2.03;0.70;;;;;;;26.86;21.74;99345.53;5066530;28;20214;-74
2022/09/19 10:17:01;;;;;;;2.70;0.67;;;;;;;26.86;21.50;99340.06;5066035;28;20220;-70
2022/09/19 10:19:32;;;;;;;1.47;0.80;;;;;;;27.01;22.67;99339.72;5058229;28;20242;-72
2022/09/19 10:21:59;;;;;;;1.10;1.00;;;;;;;27.23;22.47;99339.81;5037151;28;21021;-72
2022/09/19 10:24:47;;;;;;;1.27;1.00;;;;;;;27.46;22.58;99338.69;5042932;28;20192;-70
2022/09/19 10:27:17;;;;;;;0.80;0.80;;;;;;;27.41;21.86;99333.34;5040227;28;20764;-70
2022/09/19 10:29:57;;;;;;;0.60;0.60;;;;;;;27.55;21.70;99331.34;5044303;28;20277;-70
2022/09/19 10:32:27;;;;;;;1.63;0.77;;;;;;;27.76;22.46;99316.13;5047671;28;20235;-69
2022/09/19 10:34:54;;;;;;;1.30;0.70;;;;;;;27.77;22.65;99312.25;5065073;28;20204;-70
2022/09/19 10:37:26;;;;;;;0.60;0.60;;;;;;;27.79;21.09;99326.38;5074267;28;20257;-69
2022/09/19 10:39:54;;;;;;;1.67;0.80;;;;;;;27.84;20.65;99324.38;5074842;28;20246;-65
2022/09/19 10:42:36;;;;;;;0.40;0.40;;;;;;;27.22;20.24;99311.72;5074125;28;20194;-66
2022/09/19 10:45:17;;;;;;;0.90;0.70;;;;;;;27.42;20.53;99304.94;5074113;28;20664;-65
2022/09/19 10:47:47;;;;;;;1.77;0.70;;;;;;;27.38;19.40;99309.41;5073718;28;20650;-66
2022/09/19 10:50:17;;;;;;;2.10;0.60;;;;;;;26.39;20.59;99300.41;5075158;28;20230;-66
2022/09/19 10:52:46;;;;;;;0.60;0.60;;;;;;;26.62;20.89;99304.06;5073723;28;20196;-66
2022/09/19 10:55:20;;;;;;;0.57;0.57;;;;;;;26.68;21.05;99300.91;5073902;28;20195;-65
2022/09/19 10:57:53;;;;;;;0.83;0.70;;;;;;;26.85;21.89;99294.81;5073887;28;20192;-66
2022/09/19 11:00:23;;;;;;;0.50;0.50;;;;;;;26.77;21.21;99292.81;5074113;28;20220;-65
2022/09/19 11:03:06;;;;;;;0.93;0.87;;;;;;;26.81;20.84;99282.91;5073453;28;20253;-65
2022/09/19 11:05:35;;;;;;;1.00;0.90;;;;;;;26.79;21.74;99279.69;5073513;28;20667;-66
2022/09/19 11:08:03;;;;;;;0.70;0.70;;;;;;;26.86;21.06;99291.00;5073771;28;20228;-63
2022/09/19 11:10:39;;;;;;;0.87;0.87;;;;;;;26.92;20.79;99278.84;5073352;28;20234;-65
2022/09/19 11:13:12;;;;;;;2.83;1.13;;;;;;;26.90;20.95;99276.41;5072209;28;20203;-66
2022/09/19 11:16:05;;;;;;;1.40;1.30;;;;;;;26.93;21.46;99269.53;5066650;28;20279;-65
2022/09/19 11:18:54;;;;;;;2.30;0.50;;;;;;;26.13;23.17;99265.81;5055893;28;20611;-64
2022/09/19 11:21:29;;;;;;;1.07;0.60;;;;;;;25.81;23.15;99263.97;5054013;28;20192;-65
2022/09/19 11:24:06;;;;;;;2.67;0.83;;;;;;;25.93;23.72;99252.56;5065388;28;20234;-64
2022/09/19 11:27:03;;;;;;;0.70;0.70;;;;;;;26.02;23.40;99259.78;5073395;28;20701;-64
2022/09/19 11:29:45;;;;;;;3.27;0.93;;;;;;;26.02;24.58;99248.88;5070209;28;20222;-64
2022/09/19 11:32:25;;;;;;;2.37;1.00;;;;;;;26.04;24.65;99245.84;5063912;28;20193;-65
2022/09/19 11:35:01;;;;;;;2.30;0.70;;;;;;;25.65;24.33;99248.19;5060596;28;20180;-65
2022/09/19 11:37:44;;;;;;;3.80;1.00;;;;;;;25.64;25.92;99238.44;5055642;28;20190;-66
2022/09/19 11:40:30;;;;;;;0.97;0.70;;;;;;;25.88;24.63;99241.78;5053089;28;20242;-67
2022/09/19 11:43:11;;;;;;;1.53;0.67;;;;;;;25.90;24.29;99228.66;5053153;28;20642;-67
2022/09/19 11:45:52;;;;;;;2.03;0.90;;;;;;;25.79;24.51;99229.97;5061904;28;20703;-66
2022/09/19 11:48:39;;;;;;;0.50;0.50;;;;;;;25.54;24.38;99236.69;5071059;28;20219;-65
2022/09/19 11:51:15;;;;;;;1.43;0.80;;;;;;;24.89;25.86;99229.59;5052061;28;20227;-66
2022/09/19 11:54:06;;;;;;;1.63;0.80;;;;;;;25.03;25.09;99222.28;5061146;28;20188;-66
2022/09/19 11:56:48;;;;;;;1.23;0.83;;;;;;;25.27;25.95;99219.47;5059095;28;20182;-69
2022/09/19 11:59:28;;;;;;;0.90;0.90;;;;;;;25.23;25.15;99223.88;5067812;28;20191;-66
2022/09/19 12:02:06;;;;;;;2.47;0.90;;;;;;;25.35;26.90;99205.22;5051043;28;20196;-68
2022/09/19 12:04:42;;;;;;;0.73;0.73;;;;;;;25.61;25.71;99204.47;5072263;28;20191;-68
2022/09/19 12:07:26;;;;;;;1.03;0.67;;;;;;;25.80;24.71;99198.94;5072449;28;20190;-66